sensor_id;sensor_type;location;lat;lon;timestamp;temperature;humidity
15131;DHT22;7666;50.920;4.628;2022-07-29T00:01:27;18.40;99.90
15131;DHT22;7666;50.920;4.628;2022-07-29T00:04:14;18.40;99.90
15131;DHT22;7666;50.920;4.628;2022-07-29T00:06:59;18.30;99.90
15131;DHT22;7666;50.920;4.628;2022-07-29T00:09:45;18.30;99.90
15131;DHT22;7666;50.920;4.628;2022-07-29T00:12:31;18.30;99.90
15131;DHT22;7666;50.920;4.628;2022-07-29T00:15:17;18.30;99.90
15131;DHT22;7666;50.920;4.628;2022-07-29T00:18:03;18.20;99.90
15131;DHT22;7666;50.920;4.628;2022-07-29T00:20:49;18.30;99.90
15131;DHT22;7666;50.920;4.628;2022-07-29T00:23:35;18.20;99.90
15131;DHT22;7666;50.920;4.628;2022-07-29T00:26:21;18.10;99.90
15131;DHT22;7666;50.920;4.628;2022-07-29T00:29:07;18.00;99.90
15131;DHT22;7666;50.920;4.628;2022-07-29T00:31:53;18.00;99.90
15131;DHT22;7666;50.920;4.628;2022-07-29T00:34:39;18.00;99.90
15131;DHT22;7666;50.920;4.628;2022-07-29T00:37:44;18.00;99.90
15131;DHT22;7666;50.920;4.628;2022-07-29T00:40:30;18.00;99.90
15131;DHT22;7666;50.920;4.628;2022-07-29T00:43:17;18.10;99.90
15131;DHT22;7666;50.920;4.628;2022-07-29T00:46:03;18.10;99.90
15131;DHT22;7666;50.920;4.628;2022-07-29T00:48:49;18.10;99.90
15131;DHT22;7666;50.920;4.628;2022-07-29T00:51:37;18.10;99.90
15131;DHT22;7666;50.920;4.628;2022-07-29T00:54:23;18.10;99.90
15131;DHT22;7666;50.920;4.628;2022-07-29T00:57:09;18.10;99.90
15131;DHT22;7666;50.920;4.628;2022-07-29T00:59:55;18.10;99.90
15131;DHT22;7666;50.920;4.628;2022-07-29T01:02:41;18.10;99.90
15131;DHT22;7666;50.920;4.628;2022-07-29T01:05:28;18.10;99.90
15131;DHT22;7666;50.920;4.628;2022-07-29T01:08:15;18.10;99.90
15131;DHT22;7666;50.920;4.628;2022-07-29T01:11:02;18.00;99.90
15131;DHT22;7666;50.920;4.628;2022-07-29T01:13:48;17.90;99.90
15131;DHT22;7666;50.920;4.628;2022-07-29T01:16:51;17.90;99.90
15131;DHT22;7666;50.920;4.628;2022-07-29T01:29:24;18.10;99.90
15131;DHT22;7666;50.920;4.628;2022-07-29T01:32:20;18.00;99.90
15131;DHT22;7666;50.920;4.628;2022-07-29T01:35:10;18.00;99.90
15131;DHT22;7666;50.920;4.628;2022-07-29T01:38:09;18.00;99.90
15131;DHT22;7666;50.920;4.628;2022-07-29T01:41:05;18.00;99.90
15131;DHT22;7666;50.920;4.628;2022-07-29T01:43:54;17.80;99.90
15131;DHT22;7666;50.920;4.628;2022-07-29T01:46:47;17.80;99.90
15131;DHT22;7666;50.920;4.628;2022-07-29T01:49:36;17.80;99.90
15131;DHT22;7666;50.920;4.628;2022-07-29T01:52:42;17.80;99.90
15131;DHT22;7666;50.920;4.628;2022-07-29T01:55:32;17.80;99.90
15131;DHT22;7666;50.920;4.628;2022-07-29T01:58:20;17.80;99.90
15131;DHT22;7666;50.920;4.628;2022-07-29T02:01:09;17.70;99.90
15131;DHT22;7666;50.920;4.628;2022-07-29T02:03:56;17.70;99.90
15131;DHT22;7666;50.920;4.628;2022-07-29T02:06:44;17.70;99.90
15131;DHT22;7666;50.920;4.628;2022-07-29T02:09:34;17.60;99.90
15131;DHT22;7666;50.920;4.628;2022-07-29T02:12:22;17.60;99.90
15131;DHT22;7666;50.920;4.628;2022-07-29T02:15:11;17.60;99.90
15131;DHT22;7666;50.920;4.628;2022-07-29T02:18:18;17.50;99.90
15131;DHT22;7666;50.920;4.628;2022-07-29T02:21:05;17.40;99.90
15131;DHT22;7666;50.920;4.628;2022-07-29T02:23:52;17.40;99.90
15131;DHT22;7666;50.920;4.628;2022-07-29T02:26:40;17.30;99.90
15131;DHT22;7666;50.920;4.628;2022-07-29T02:29:28;17.30;99.90
15131;DHT22;7666;50.920;4.628;2022-07-29T02:32:16;17.20;99.90
15131;DHT22;7666;50.920;4.628;2022-07-29T02:35:03;17.20;99.90
15131;DHT22;7666;50.920;4.628;2022-07-29T02:37:51;17.10;99.90
15131;DHT22;7666;50.920;4.628;2022-07-29T02:40:57;17.00;99.90
15131;DHT22;7666;50.920;4.628;2022-07-29T02:43:47;17.00;99.90
15131;DHT22;7666;50.920;4.628;2022-07-29T02:46:36;16.90;99.90
15131;DHT22;7666;50.920;4.628;2022-07-29T02:55:26;16.30;99.90
15131;DHT22;7666;50.920;4.628;2022-07-29T02:58:24;16.20;99.90
15131;DHT22;7666;50.920;4.628;2022-07-29T03:01:21;16.10;99.90
15131;DHT22;7666;50.920;4.628;2022-07-29T03:04:09;16.00;99.90
15131;DHT22;7666;50.920;4.628;2022-07-29T03:06:58;15.90;99.90
15131;DHT22;7666;50.920;4.628;2022-07-29T03:09:46;15.80;99.90
15131;DHT22;7666;50.920;4.628;2022-07-29T03:12:32;15.80;99.90
15131;DHT22;7666;50.920;4.628;2022-07-29T03:15:19;15.80;99.90
15131;DHT22;7666;50.920;4.628;2022-07-29T03:18:06;15.80;99.90
15131;DHT22;7666;50.920;4.628;2022-07-29T03:20:53;15.80;99.90
15131;DHT22;7666;50.920;4.628;2022-07-29T03:23:43;15.90;99.90
15131;DHT22;7666;50.920;4.628;2022-07-29T03:26:30;15.90;99.90
15131;DHT22;7666;50.920;4.628;2022-07-29T03:29:16;15.90;99.90
15131;DHT22;7666;50.920;4.628;2022-07-29T03:32:04;15.90;99.90
15131;DHT22;7666;50.920;4.628;2022-07-29T03:34:50;16.00;99.90
15131;DHT22;7666;50.920;4.628;2022-07-29T03:37:36;15.90;99.90
15131;DHT22;7666;50.920;4.628;2022-07-29T03:40:35;15.90;99.90
15131;DHT22;7666;50.920;4.628;2022-07-29T03:43:25;16.00;99.90
15131;DHT22;7666;50.920;4.628;2022-07-29T03:46:13;15.90;99.90
15131;DHT22;7666;50.920;4.628;2022-07-29T03:49:03;15.80;99.90
15131;DHT22;7666;50.920;4.628;2022-07-29T03:51:50;15.80;99.90
15131;DHT22;7666;50.920;4.628;2022-07-29T03:54:36;15.80;99.90
15131;DHT22;7666;50.920;4.628;2022-07-29T03:57:25;15.70;99.90
15131;DHT22;7666;50.920;4.628;2022-07-29T04:00:13;15.70;99.90
15131;DHT22;7666;50.920;4.628;2022-07-29T04:03:02;15.70;99.90
15131;DHT22;7666;50.920;4.628;2022-07-29T04:06:03;15.70;99.90
15131;DHT22;7666;50.920;4.628;2022-07-29T04:08:51;15.60;99.90
15131;DHT22;7666;50.920;4.628;2022-07-29T04:11:41;15.60;99.90
15131;DHT22;7666;50.920;4.628;2022-07-29T04:14:27;15.50;99.90
15131;DHT22;7666;50.920;4.628;2022-07-29T04:17:13;15.50;99.90
15131;DHT22;7666;50.920;4.628;2022-07-29T04:19:59;15.50;99.90
15131;DHT22;7666;50.920;4.628;2022-07-29T04:22:45;15.50;99.90
15131;DHT22;7666;50.920;4.628;2022-07-29T04:25:31;15.40;99.90
15131;DHT22;7666;50.920;4.628;2022-07-29T04:28:17;15.30;99.90
15131;DHT22;7666;50.920;4.628;2022-07-29T04:31:03;15.40;99.90
15131;DHT22;7666;50.920;4.628;2022-07-29T04:33:49;15.40;99.90
15131;DHT22;7666;50.920;4.628;2022-07-29T04:36:35;15.40;99.90
15131;DHT22;7666;50.920;4.628;2022-07-29T04:39:21;15.50;99.90
15131;DHT22;7666;50.920;4.628;2022-07-29T04:42:07;15.50;99.90
15131;DHT22;7666;50.920;4.628;2022-07-29T04:44:52;15.50;99.90
15131;DHT22;7666;50.920;4.628;2022-07-29T04:47:38;15.50;99.90
15131;DHT22;7666;50.920;4.628;2022-07-29T04:50:24;15.60;99.90
15131;DHT22;7666;50.920;4.628;2022-07-29T04:53:10;15.70;99.90
15131;DHT22;7666;50.920;4.628;2022-07-29T04:55:56;15.70;99.90
15131;DHT22;7666;50.920;4.628;2022-07-29T04:58:42;15.70;99.90
15131;DHT22;7666;50.920;4.628;2022-07-29T05:01:28;15.70;99.90
15131;DHT22;7666;50.920;4.628;2022-07-29T05:04:14;15.80;99.90
15131;DHT22;7666;50.920;4.628;2022-07-29T05:07:00;16.00;99.90
15131;DHT22;7666;50.920;4.628;2022-07-29T05:09:46;16.40;99.90
15131;DHT22;7666;50.920;4.628;2022-07-29T05:12:32;17.00;99.90
15131;DHT22;7666;50.920;4.628;2022-07-29T05:15:18;17.80;99.90
15131;DHT22;7666;50.920;4.628;2022-07-29T05:18:05;18.60;99.90
15131;DHT22;7666;50.920;4.628;2022-07-29T05:20:51;19.30;99.90
15131;DHT22;7666;50.920;4.628;2022-07-29T05:23:37;20.30;99.90
15131;DHT22;7666;50.920;4.628;2022-07-29T05:26:23;21.20;99.90
15131;DHT22;7666;50.920;4.628;2022-07-29T05:29:09;22.00;99.90
15131;DHT22;7666;50.920;4.628;2022-07-29T05:31:55;22.60;99.90
15131;DHT22;7666;50.920;4.628;2022-07-29T05:34:41;23.30;99.90
15131;DHT22;7666;50.920;4.628;2022-07-29T05:37:27;23.90;99.90
15131;DHT22;7666;50.920;4.628;2022-07-29T05:40:13;24.30;99.90
15131;DHT22;7666;50.920;4.628;2022-07-29T05:42:59;24.50;99.90
15131;DHT22;7666;50.920;4.628;2022-07-29T05:45:45;24.90;99.90
15131;DHT22;7666;50.920;4.628;2022-07-29T05:48:31;25.20;99.90
15131;DHT22;7666;50.920;4.628;2022-07-29T05:51:18;25.60;99.90
15131;DHT22;7666;50.920;4.628;2022-07-29T05:54:03;26.10;99.90
15131;DHT22;7666;50.920;4.628;2022-07-29T05:56:49;26.50;99.90
15131;DHT22;7666;50.920;4.628;2022-07-29T05:59:36;27.10;99.90
15131;DHT22;7666;50.920;4.628;2022-07-29T06:02:22;27.00;99.90
15131;DHT22;7666;50.920;4.628;2022-07-29T06:05:08;26.40;99.90
15131;DHT22;7666;50.920;4.628;2022-07-29T06:07:54;25.50;99.90
15131;DHT22;7666;50.920;4.628;2022-07-29T06:10:40;25.10;99.90
15131;DHT22;7666;50.920;4.628;2022-07-29T06:13:26;24.60;99.90
15131;DHT22;7666;50.920;4.628;2022-07-29T06:16:12;23.90;99.90
15131;DHT22;7666;50.920;4.628;2022-07-29T06:18:58;22.90;99.90
15131;DHT22;7666;50.920;4.628;2022-07-29T06:21:45;22.40;99.90
15131;DHT22;7666;50.920;4.628;2022-07-29T06:24:31;22.40;99.90
15131;DHT22;7666;50.920;4.628;2022-07-29T06:27:17;22.80;99.90
15131;DHT22;7666;50.920;4.628;2022-07-29T06:30:04;23.80;99.90
15131;DHT22;7666;50.920;4.628;2022-07-29T06:32:52;24.80;99.90
15131;DHT22;7666;50.920;4.628;2022-07-29T06:35:38;24.30;99.90
15131;DHT22;7666;50.920;4.628;2022-07-29T06:38:25;23.60;99.90
15131;DHT22;7666;50.920;4.628;2022-07-29T06:41:11;22.80;99.90
15131;DHT22;7666;50.920;4.628;2022-07-29T06:43:58;22.50;99.90
15131;DHT22;7666;50.920;4.628;2022-07-29T06:46:44;22.60;99.90
15131;DHT22;7666;50.920;4.628;2022-07-29T06:49:32;23.30;99.90
15131;DHT22;7666;50.920;4.628;2022-07-29T06:52:18;24.40;99.90
15131;DHT22;7666;50.920;4.628;2022-07-29T06:55:05;25.20;99.90
15131;DHT22;7666;50.920;4.628;2022-07-29T06:57:51;25.90;99.90
15131;DHT22;7666;50.920;4.628;2022-07-29T07:00:37;26.20;99.90
15131;DHT22;7666;50.920;4.628;2022-07-29T07:03:24;25.90;99.90
15131;DHT22;7666;50.920;4.628;2022-07-29T07:06:10;26.40;99.90
15131;DHT22;7666;50.920;4.628;2022-07-29T07:08:56;26.80;99.90
15131;DHT22;7666;50.920;4.628;2022-07-29T07:11:42;27.30;99.90
15131;DHT22;7666;50.920;4.628;2022-07-29T07:14:28;27.50;99.90
15131;DHT22;7666;50.920;4.628;2022-07-29T07:17:13;27.10;99.90
15131;DHT22;7666;50.920;4.628;2022-07-29T07:19:59;26.40;99.90
15131;DHT22;7666;50.920;4.628;2022-07-29T07:22:45;26.40;99.90
15131;DHT22;7666;50.920;4.628;2022-07-29T07:25:31;26.30;99.90
15131;DHT22;7666;50.920;4.628;2022-07-29T07:28:18;26.10;99.90
15131;DHT22;7666;50.920;4.628;2022-07-29T07:31:03;25.40;99.90
15131;DHT22;7666;50.920;4.628;2022-07-29T07:33:50;25.40;99.90
15131;DHT22;7666;50.920;4.628;2022-07-29T07:36:37;25.00;99.90
15131;DHT22;7666;50.920;4.628;2022-07-29T07:39:23;24.90;99.90
15131;DHT22;7666;50.920;4.628;2022-07-29T07:42:09;24.50;99.90
15131;DHT22;7666;50.920;4.628;2022-07-29T07:44:58;24.40;99.90
15131;DHT22;7666;50.920;4.628;2022-07-29T07:47:44;24.30;99.90
15131;DHT22;7666;50.920;4.628;2022-07-29T07:50:30;24.10;99.90
15131;DHT22;7666;50.920;4.628;2022-07-29T07:53:16;24.10;99.90
15131;DHT22;7666;50.920;4.628;2022-07-29T07:56:02;24.30;99.90
15131;DHT22;7666;50.920;4.628;2022-07-29T07:58:48;24.40;99.90
15131;DHT22;7666;50.920;4.628;2022-07-29T08:01:34;24.20;99.90
15131;DHT22;7666;50.920;4.628;2022-07-29T08:04:20;24.40;99.90
15131;DHT22;7666;50.920;4.628;2022-07-29T08:07:07;24.40;99.90
15131;DHT22;7666;50.920;4.628;2022-07-29T08:09:54;24.30;99.90
15131;DHT22;7666;50.920;4.628;2022-07-29T08:12:40;24.50;99.90
15131;DHT22;7666;50.920;4.628;2022-07-29T08:15:26;24.40;99.90
15131;DHT22;7666;50.920;4.628;2022-07-29T08:18:13;24.40;99.90
15131;DHT22;7666;50.920;4.628;2022-07-29T08:20:59;24.40;99.90
15131;DHT22;7666;50.920;4.628;2022-07-29T08:23:45;24.80;99.90
15131;DHT22;7666;50.920;4.628;2022-07-29T08:26:59;24.90;99.90
15131;DHT22;7666;50.920;4.628;2022-07-29T08:29:45;24.90;99.90
15131;DHT22;7666;50.920;4.628;2022-07-29T08:32:31;25.00;99.90
15131;DHT22;7666;50.920;4.628;2022-07-29T08:35:18;25.00;99.90
15131;DHT22;7666;50.920;4.628;2022-07-29T08:38:04;25.20;99.90
15131;DHT22;7666;50.920;4.628;2022-07-29T08:40:50;25.20;99.90
15131;DHT22;7666;50.920;4.628;2022-07-29T08:43:35;25.40;99.90
15131;DHT22;7666;50.920;4.628;2022-07-29T08:46:23;25.20;99.90
15131;DHT22;7666;50.920;4.628;2022-07-29T08:49:09;25.10;99.90
15131;DHT22;7666;50.920;4.628;2022-07-29T08:51:57;25.10;99.90
15131;DHT22;7666;50.920;4.628;2022-07-29T08:54:43;25.30;99.90
15131;DHT22;7666;50.920;4.628;2022-07-29T08:57:30;25.20;99.90
15131;DHT22;7666;50.920;4.628;2022-07-29T09:00:17;25.50;99.90
15131;DHT22;7666;50.920;4.628;2022-07-29T09:03:04;25.70;99.90
15131;DHT22;7666;50.920;4.628;2022-07-29T09:05:51;25.80;99.90
15131;DHT22;7666;50.920;4.628;2022-07-29T09:08:37;25.60;99.90
15131;DHT22;7666;50.920;4.628;2022-07-29T09:11:24;25.50;99.90
15131;DHT22;7666;50.920;4.628;2022-07-29T09:14:14;25.30;99.90
15131;DHT22;7666;50.920;4.628;2022-07-29T09:17:00;25.40;99.90
15131;DHT22;7666;50.920;4.628;2022-07-29T09:19:46;25.60;99.90
15131;DHT22;7666;50.920;4.628;2022-07-29T09:22:32;25.60;99.90
15131;DHT22;7666;50.920;4.628;2022-07-29T09:25:35;25.70;99.90
15131;DHT22;7666;50.920;4.628;2022-07-29T09:28:21;25.80;99.90
15131;DHT22;7666;50.920;4.628;2022-07-29T09:31:09;25.70;99.90
15131;DHT22;7666;50.920;4.628;2022-07-29T09:33:58;25.60;99.90
15131;DHT22;7666;50.920;4.628;2022-07-29T09:36:48;25.90;99.90
15131;DHT22;7666;50.920;4.628;2022-07-29T09:39:37;26.00;99.90
15131;DHT22;7666;50.920;4.628;2022-07-29T09:42:29;25.70;99.90
15131;DHT22;7666;50.920;4.628;2022-07-29T09:45:31;25.90;99.90
15131;DHT22;7666;50.920;4.628;2022-07-29T09:48:23;26.00;99.90
15131;DHT22;7666;50.920;4.628;2022-07-29T09:51:19;25.90;99.90
15131;DHT22;7666;50.920;4.628;2022-07-29T09:54:22;26.20;99.90
15131;DHT22;7666;50.920;4.628;2022-07-29T09:57:25;26.40;99.90
15131;DHT22;7666;50.920;4.628;2022-07-29T10:00:14;26.50;99.90
15131;DHT22;7666;50.920;4.628;2022-07-29T10:03:00;26.50;99.90
15131;DHT22;7666;50.920;4.628;2022-07-29T10:06:10;26.10;99.90
15131;DHT22;7666;50.920;4.628;2022-07-29T10:09:10;26.00;99.90
15131;DHT22;7666;50.920;4.628;2022-07-29T10:12:13;25.90;99.90
15131;DHT22;7666;50.920;4.628;2022-07-29T10:15:02;25.90;99.90
15131;DHT22;7666;50.920;4.628;2022-07-29T10:17:48;26.10;99.90
15131;DHT22;7666;50.920;4.628;2022-07-29T10:20:35;26.40;99.90
15131;DHT22;7666;50.920;4.628;2022-07-29T10:23:21;26.30;99.90
15131;DHT22;7666;50.920;4.628;2022-07-29T10:26:07;26.30;99.90
15131;DHT22;7666;50.920;4.628;2022-07-29T10:28:55;26.40;99.90
15131;DHT22;7666;50.920;4.628;2022-07-29T10:44:17;26.50;99.90
15131;DHT22;7666;50.920;4.628;2022-07-29T10:47:03;26.70;99.90
15131;DHT22;7666;50.920;4.628;2022-07-29T10:55:38;27.00;99.90
15131;DHT22;7666;50.920;4.628;2022-07-29T10:58:27;27.10;99.90
15131;DHT22;7666;50.920;4.628;2022-07-29T11:01:30;27.10;99.90
15131;DHT22;7666;50.920;4.628;2022-07-29T11:07:32;27.50;99.90
15131;DHT22;7666;50.920;4.628;2022-07-29T11:10:20;27.50;99.90
15131;DHT22;7666;50.920;4.628;2022-07-29T11:13:06;27.50;99.90
15131;DHT22;7666;50.920;4.628;2022-07-29T11:15:56;27.10;99.90
15131;DHT22;7666;50.920;4.628;2022-07-29T11:21:57;26.70;99.90
15131;DHT22;7666;50.920;4.628;2022-07-29T11:24:43;26.90;99.90
15131;DHT22;7666;50.920;4.628;2022-07-29T11:27:32;27.00;99.90
15131;DHT22;7666;50.920;4.628;2022-07-29T11:30:48;27.50;99.90
15131;DHT22;7666;50.920;4.628;2022-07-29T11:33:35;27.40;99.90
15131;DHT22;7666;50.920;4.628;2022-07-29T11:36:21;27.00;99.90
15131;DHT22;7666;50.920;4.628;2022-07-29T11:39:43;26.80;99.90
15131;DHT22;7666;50.920;4.628;2022-07-29T11:45:22;27.60;99.90
15131;DHT22;7666;50.920;4.628;2022-07-29T11:48:16;28.20;99.90
15131;DHT22;7666;50.920;4.628;2022-07-29T11:51:09;28.00;99.90
15131;DHT22;7666;50.920;4.628;2022-07-29T11:53:57;28.00;99.90
15131;DHT22;7666;50.920;4.628;2022-07-29T11:56:45;28.30;99.90
15131;DHT22;7666;50.920;4.628;2022-07-29T11:59:39;28.50;99.90
15131;DHT22;7666;50.920;4.628;2022-07-29T12:02:41;27.80;99.90
15131;DHT22;7666;50.920;4.628;2022-07-29T12:05:32;27.80;99.90
15131;DHT22;7666;50.920;4.628;2022-07-29T12:08:21;27.50;99.90
15131;DHT22;7666;50.920;4.628;2022-07-29T12:11:16;27.30;99.90
15131;DHT22;7666;50.920;4.628;2022-07-29T12:14:02;27.30;99.90
15131;DHT22;7666;50.920;4.628;2022-07-29T12:16:48;28.00;99.90
15131;DHT22;7666;50.920;4.628;2022-07-29T12:19:42;28.60;99.90
15131;DHT22;7666;50.920;4.628;2022-07-29T12:22:34;28.50;99.90
15131;DHT22;7666;50.920;4.628;2022-07-29T12:25:23;28.20;99.90
15131;DHT22;7666;50.920;4.628;2022-07-29T12:28:14;28.20;99.90
15131;DHT22;7666;50.920;4.628;2022-07-29T12:31:04;28.40;99.90
15131;DHT22;7666;50.920;4.628;2022-07-29T12:33:53;28.30;99.90
15131;DHT22;7666;50.920;4.628;2022-07-29T12:36:41;27.90;99.90
15131;DHT22;7666;50.920;4.628;2022-07-29T12:39:31;27.50;99.90
15131;DHT22;7666;50.920;4.628;2022-07-29T12:42:17;27.10;99.90
15131;DHT22;7666;50.920;4.628;2022-07-29T12:45:04;27.30;99.90
15131;DHT22;7666;50.920;4.628;2022-07-29T12:47:51;28.10;99.90
15131;DHT22;7666;50.920;4.628;2022-07-29T12:50:53;28.50;99.90
15131;DHT22;7666;50.920;4.628;2022-07-29T12:53:39;28.70;99.90
15131;DHT22;7666;50.920;4.628;2022-07-29T12:56:25;28.80;99.90
15131;DHT22;7666;50.920;4.628;2022-07-29T12:59:19;28.60;99.90
15131;DHT22;7666;50.920;4.628;2022-07-29T13:02:05;28.40;99.90
15131;DHT22;7666;50.920;4.628;2022-07-29T13:04:59;28.30;99.90
15131;DHT22;7666;50.920;4.628;2022-07-29T13:07:45;28.50;99.90
15131;DHT22;7666;50.920;4.628;2022-07-29T13:10:35;28.90;99.90
15131;DHT22;7666;50.920;4.628;2022-07-29T13:13:22;29.70;99.90
15131;DHT22;7666;50.920;4.628;2022-07-29T13:16:08;30.10;99.90
15131;DHT22;7666;50.920;4.628;2022-07-29T13:19:05;30.40;99.90
15131;DHT22;7666;50.920;4.628;2022-07-29T13:21:51;30.50;99.90
15131;DHT22;7666;50.920;4.628;2022-07-29T13:24:54;30.10;99.90
15131;DHT22;7666;50.920;4.628;2022-07-29T13:27:40;29.80;99.90
15131;DHT22;7666;50.920;4.628;2022-07-29T13:30:26;29.10;99.90
15131;DHT22;7666;50.920;4.628;2022-07-29T13:33:14;29.30;99.90
15131;DHT22;7666;50.920;4.628;2022-07-29T13:36:00;29.20;99.90
15131;DHT22;7666;50.920;4.628;2022-07-29T13:38:46;28.70;99.90
15131;DHT22;7666;50.920;4.628;2022-07-29T13:41:32;28.40;99.90
15131;DHT22;7666;50.920;4.628;2022-07-29T13:44:18;27.90;99.90
15131;DHT22;7666;50.920;4.628;2022-07-29T13:47:04;28.10;99.90
15131;DHT22;7666;50.920;4.628;2022-07-29T13:49:50;28.00;99.90
15131;DHT22;7666;50.920;4.628;2022-07-29T13:52:37;27.60;99.90
15131;DHT22;7666;50.920;4.628;2022-07-29T13:55:24;27.50;99.90
15131;DHT22;7666;50.920;4.628;2022-07-29T13:58:10;27.20;99.90
15131;DHT22;7666;50.920;4.628;2022-07-29T14:00:56;27.10;99.90
15131;DHT22;7666;50.920;4.628;2022-07-29T14:03:42;27.10;99.90
15131;DHT22;7666;50.920;4.628;2022-07-29T14:06:28;27.20;99.90
15131;DHT22;7666;50.920;4.628;2022-07-29T14:09:14;27.00;99.90
15131;DHT22;7666;50.920;4.628;2022-07-29T14:12:00;26.80;99.90
15131;DHT22;7666;50.920;4.628;2022-07-29T14:14:48;26.70;99.90
15131;DHT22;7666;50.920;4.628;2022-07-29T14:17:34;26.60;99.90
15131;DHT22;7666;50.920;4.628;2022-07-29T14:20:20;26.50;99.90
15131;DHT22;7666;50.920;4.628;2022-07-29T14:23:06;26.50;99.90
15131;DHT22;7666;50.920;4.628;2022-07-29T14:25:52;26.50;99.90
15131;DHT22;7666;50.920;4.628;2022-07-29T14:28:38;26.70;99.90
15131;DHT22;7666;50.920;4.628;2022-07-29T14:31:24;26.80;99.90
15131;DHT22;7666;50.920;4.628;2022-07-29T14:34:10;26.90;99.90
15131;DHT22;7666;50.920;4.628;2022-07-29T14:36:55;27.00;99.90
15131;DHT22;7666;50.920;4.628;2022-07-29T14:39:41;26.80;99.90
15131;DHT22;7666;50.920;4.628;2022-07-29T14:42:27;26.50;99.90
15131;DHT22;7666;50.920;4.628;2022-07-29T14:45:13;26.50;99.90
15131;DHT22;7666;50.920;4.628;2022-07-29T14:47:59;26.50;99.90
15131;DHT22;7666;50.920;4.628;2022-07-29T14:50:45;26.60;99.90
15131;DHT22;7666;50.920;4.628;2022-07-29T14:53:31;27.20;99.90
15131;DHT22;7666;50.920;4.628;2022-07-29T14:56:17;27.60;99.90
15131;DHT22;7666;50.920;4.628;2022-07-29T14:59:03;27.80;99.90
15131;DHT22;7666;50.920;4.628;2022-07-29T15:01:49;27.90;99.90
15131;DHT22;7666;50.920;4.628;2022-07-29T15:04:35;27.80;99.90
15131;DHT22;7666;50.920;4.628;2022-07-29T15:07:21;27.90;99.90
15131;DHT22;7666;50.920;4.628;2022-07-29T15:10:07;28.00;99.90
15131;DHT22;7666;50.920;4.628;2022-07-29T15:12:54;28.00;99.90
15131;DHT22;7666;50.920;4.628;2022-07-29T15:15:40;27.70;99.90
15131;DHT22;7666;50.920;4.628;2022-07-29T15:18:26;27.50;99.90
15131;DHT22;7666;50.920;4.628;2022-07-29T15:21:12;27.60;99.90
15131;DHT22;7666;50.920;4.628;2022-07-29T15:23:59;27.70;99.90
15131;DHT22;7666;50.920;4.628;2022-07-29T15:26:46;27.80;99.90
15131;DHT22;7666;50.920;4.628;2022-07-29T15:29:32;27.70;99.90
15131;DHT22;7666;50.920;4.628;2022-07-29T15:32:18;27.70;99.90
15131;DHT22;7666;50.920;4.628;2022-07-29T15:35:04;27.80;99.90
15131;DHT22;7666;50.920;4.628;2022-07-29T15:37:50;27.80;99.90
15131;DHT22;7666;50.920;4.628;2022-07-29T15:40:38;27.90;99.90
15131;DHT22;7666;50.920;4.628;2022-07-29T15:43:25;27.80;99.90
15131;DHT22;7666;50.920;4.628;2022-07-29T15:46:17;28.00;99.90
15131;DHT22;7666;50.920;4.628;2022-07-29T15:49:21;27.90;99.90
15131;DHT22;7666;50.920;4.628;2022-07-29T15:52:09;27.80;99.90
15131;DHT22;7666;50.920;4.628;2022-07-29T15:54:56;27.70;99.90
15131;DHT22;7666;50.920;4.628;2022-07-29T15:57:42;27.70;99.90
15131;DHT22;7666;50.920;4.628;2022-07-29T16:00:28;27.40;99.90
15131;DHT22;7666;50.920;4.628;2022-07-29T16:03:14;27.30;99.90
15131;DHT22;7666;50.920;4.628;2022-07-29T16:06:00;27.30;99.90
15131;DHT22;7666;50.920;4.628;2022-07-29T16:08:46;27.40;99.90
15131;DHT22;7666;50.920;4.628;2022-07-29T16:11:32;27.30;99.90
15131;DHT22;7666;50.920;4.628;2022-07-29T16:14:19;27.30;99.90
15131;DHT22;7666;50.920;4.628;2022-07-29T16:17:05;27.20;99.90
15131;DHT22;7666;50.920;4.628;2022-07-29T16:19:51;27.10;99.90
15131;DHT22;7666;50.920;4.628;2022-07-29T16:22:38;27.20;99.90
15131;DHT22;7666;50.920;4.628;2022-07-29T16:25:23;27.00;99.90
15131;DHT22;7666;50.920;4.628;2022-07-29T16:28:09;26.70;99.90
15131;DHT22;7666;50.920;4.628;2022-07-29T16:30:56;26.70;99.90
15131;DHT22;7666;50.920;4.628;2022-07-29T16:33:42;26.80;99.90
15131;DHT22;7666;50.920;4.628;2022-07-29T16:36:28;26.90;99.90
15131;DHT22;7666;50.920;4.628;2022-07-29T16:39:14;26.80;99.90
15131;DHT22;7666;50.920;4.628;2022-07-29T16:41:59;26.80;99.90
15131;DHT22;7666;50.920;4.628;2022-07-29T16:44:45;26.80;99.90
15131;DHT22;7666;50.920;4.628;2022-07-29T16:47:31;26.80;99.90
15131;DHT22;7666;50.920;4.628;2022-07-29T16:50:17;26.80;99.90
15131;DHT22;7666;50.920;4.628;2022-07-29T16:53:03;26.80;99.90
15131;DHT22;7666;50.920;4.628;2022-07-29T16:55:49;26.90;99.90
15131;DHT22;7666;50.920;4.628;2022-07-29T16:58:35;26.90;99.90
15131;DHT22;7666;50.920;4.628;2022-07-29T17:01:21;26.90;99.90
15131;DHT22;7666;50.920;4.628;2022-07-29T17:04:07;26.90;99.90
15131;DHT22;7666;50.920;4.628;2022-07-29T17:06:53;26.70;99.90
15131;DHT22;7666;50.920;4.628;2022-07-29T17:09:39;26.70;99.90
15131;DHT22;7666;50.920;4.628;2022-07-29T17:12:25;26.60;99.90
15131;DHT22;7666;50.920;4.628;2022-07-29T17:15:12;26.50;99.90
15131;DHT22;7666;50.920;4.628;2022-07-29T17:17:58;26.40;99.90
15131;DHT22;7666;50.920;4.628;2022-07-29T17:20:46;26.30;99.90
15131;DHT22;7666;50.920;4.628;2022-07-29T17:23:31;26.20;99.90
15131;DHT22;7666;50.920;4.628;2022-07-29T17:26:18;26.10;99.90
15131;DHT22;7666;50.920;4.628;2022-07-29T17:29:05;26.10;99.90
15131;DHT22;7666;50.920;4.628;2022-07-29T17:31:51;26.10;99.90
15131;DHT22;7666;50.920;4.628;2022-07-29T17:34:39;26.20;99.90
15131;DHT22;7666;50.920;4.628;2022-07-29T17:37:25;26.10;99.90
15131;DHT22;7666;50.920;4.628;2022-07-29T17:40:13;26.00;99.90
15131;DHT22;7666;50.920;4.628;2022-07-29T17:42:59;25.90;99.90
15131;DHT22;7666;50.920;4.628;2022-07-29T17:45:45;25.80;99.90
15131;DHT22;7666;50.920;4.628;2022-07-29T17:48:31;25.70;99.90
15131;DHT22;7666;50.920;4.628;2022-07-29T17:51:17;25.60;99.90
15131;DHT22;7666;50.920;4.628;2022-07-29T17:54:03;25.60;99.90
15131;DHT22;7666;50.920;4.628;2022-07-29T17:56:49;25.50;99.90
15131;DHT22;7666;50.920;4.628;2022-07-29T17:59:35;25.40;99.90
15131;DHT22;7666;50.920;4.628;2022-07-29T18:02:21;25.20;99.90
15131;DHT22;7666;50.920;4.628;2022-07-29T18:05:07;25.00;99.90
15131;DHT22;7666;50.920;4.628;2022-07-29T18:07:53;24.90;99.90
15131;DHT22;7666;50.920;4.628;2022-07-29T18:10:40;24.80;99.90
15131;DHT22;7666;50.920;4.628;2022-07-29T18:13:26;24.60;99.90
15131;DHT22;7666;50.920;4.628;2022-07-29T18:16:12;24.40;99.90
15131;DHT22;7666;50.920;4.628;2022-07-29T18:18:58;24.10;99.90
15131;DHT22;7666;50.920;4.628;2022-07-29T18:21:44;24.00;99.90
15131;DHT22;7666;50.920;4.628;2022-07-29T18:24:30;23.90;99.90
15131;DHT22;7666;50.920;4.628;2022-07-29T18:27:16;23.80;99.90
15131;DHT22;7666;50.920;4.628;2022-07-29T18:30:03;23.70;99.90
15131;DHT22;7666;50.920;4.628;2022-07-29T18:32:50;23.60;99.90
15131;DHT22;7666;50.920;4.628;2022-07-29T18:35:36;23.60;99.90
15131;DHT22;7666;50.920;4.628;2022-07-29T18:38:22;23.60;99.90
15131;DHT22;7666;50.920;4.628;2022-07-29T18:41:08;23.60;99.90